Time;durP1;ratioP1;P1;durP2;ratioP2;P2;SDS_P1;SDS_P2;PMS_P1;PMS_P2;Temp;Humidity;BMP_temperature;BMP_pressure;BME280_temperature;BME280_humidity;BME280_pressure;Samples;Min_cycle;Max_cycle;Signal;HPM_P1;HPM_P2
2021/07/22 00:02:26;;;;;;;5.40;3.83;;;20.60;48.90;;;;;;5034040;28;20025;-65
2021/07/22 00:04:52;;;;;;;4.43;3.20;;;20.60;49.10;;;;;;5033177;28;20034;-65
2021/07/22 00:07:18;;;;;;;5.43;4.00;;;20.60;49.50;;;;;;5034048;28;20075;-65
2021/07/22 00:09:44;;;;;;;4.50;3.75;;;20.50;49.40;;;;;;5033531;28;20435;-65
2021/07/22 00:12:14;;;;;;;7.50;3.50;;;20.50;49.60;;;;;;5033855;28;20029;-65
2021/07/22 00:14:40;;;;;;;5.55;3.65;;;20.40;49.40;;;;;;5033821;28;20065;-65
2021/07/22 00:17:07;;;;;;;6.82;4.20;;;20.40;49.70;;;;;;5033826;28;20056;-65
2021/07/22 00:19:33;;;;;;;4.00;3.45;;;20.40;49.70;;;;;;5033592;28;20029;-65
2021/07/22 00:21:59;;;;;;;5.07;3.67;;;20.40;49.70;;;;;;5041987;28;20048;-65
2021/07/22 00:24:25;;;;;;;6.97;3.55;;;20.30;49.90;;;;;;5033369;28;20034;-65
2021/07/22 00:26:51;;;;;;;5.22;4.20;;;20.30;49.90;;;;;;5033536;28;20013;-65
2021/07/22 00:29:17;;;;;;;6.90;3.92;;;20.20;50.10;;;;;;5032236;28;20022;-65
2021/07/22 00:31:43;;;;;;;4.82;3.78;;;20.20;50.20;;;;;;5033208;28;20445;-64
2021/07/22 00:34:09;;;;;;;9.38;4.13;;;20.20;50.30;;;;;;5028814;28;20021;-65
2021/07/22 00:36:34;;;;;;;5.32;3.67;;;20.10;50.50;;;;;;5033469;28;20517;-65
2021/07/22 00:39:00;;;;;;;8.60;3.88;;;20.10;50.30;;;;;;5033254;28;20029;-65
2021/07/22 00:41:26;;;;;;;4.78;3.58;;;20.10;50.40;;;;;;5032242;28;20380;-65
2021/07/22 00:43:52;;;;;;;4.93;3.85;;;20.10;50.60;;;;;;5033330;28;20029;-64
2021/07/22 00:46:18;;;;;;;5.55;3.83;;;20.10;50.80;;;;;;5032859;28;20033;-65
2021/07/22 00:48:43;;;;;;;4.70;3.90;;;20.00;50.90;;;;;;5032911;28;20098;-66
2021/07/22 00:51:09;;;;;;;6.03;3.75;;;20.00;50.90;;;;;;5017590;28;20365;-64
2021/07/22 00:53:36;;;;;;;4.70;3.60;;;20.00;50.80;;;;;;5023337;28;20030;-66
2021/07/22 00:56:03;;;;;;;6.40;4.15;;;20.00;50.70;;;;;;5031656;28;20387;-64
2021/07/22 00:58:29;;;;;;;8.43;4.05;;;19.90;51.20;;;;;;5032714;28;20052;-67
2021/07/22 01:00:55;;;;;;;6.75;4.30;;;19.90;51.50;;;;;;5032934;28;20533;-66
2021/07/22 01:03:21;;;;;;;5.63;3.83;;;19.90;51.80;;;;;;5031269;28;20471;-65
2021/07/22 01:05:46;;;;;;;5.22;3.53;;;19.90;51.40;;;;;;5032676;28;20052;-65
2021/07/22 01:08:12;;;;;;;8.95;4.18;;;19.90;51.20;;;;;;5032482;28;20033;-65
2021/07/22 01:10:38;;;;;;;4.75;3.65;;;19.90;51.70;;;;;;5032480;28;20029;-65
2021/07/22 01:13:04;;;;;;;4.45;3.70;;;19.80;51.40;;;;;;5032641;28;20053;-65
2021/07/22 01:15:31;;;;;;;4.53;3.60;;;19.80;51.20;;;;;;5032548;28;20054;-65
2021/07/22 01:17:57;;;;;;;5.20;3.97;;;19.80;51.20;;;;;;5032518;28;20048;-65
2021/07/22 01:20:25;;;;;;;9.88;3.95;;;19.70;51.50;;;;;;5030103;28;20129;-66
2021/07/22 01:22:53;;;;;;;4.50;3.70;;;19.70;51.80;;;;;;5030378;28;20064;-65
2021/07/22 01:25:19;;;;;;;5.15;4.28;;;19.70;51.80;;;;;;5032819;28;20112;-65
2021/07/22 01:27:46;;;;;;;5.80;4.28;;;19.70;52.10;;;;;;5032843;28;20387;-65
2021/07/22 01:30:13;;;;;;;4.57;4.00;;;19.60;52.10;;;;;;5032787;28;20030;-65
2021/07/22 01:32:40;;;;;;;8.43;4.05;;;19.60;52.20;;;;;;5032427;28;20091;-65
2021/07/22 01:35:07;;;;;;;6.20;4.10;;;19.60;52.20;;;;;;5032500;28;20033;-66
2021/07/22 01:37:32;;;;;;;4.95;3.80;;;19.60;52.30;;;;;;5032355;28;20116;-65
2021/07/22 01:39:58;;;;;;;8.98;4.20;;;19.60;52.20;;;;;;5032087;28;20112;-65
2021/07/22 01:42:24;;;;;;;5.90;4.38;;;19.50;52.00;;;;;;5031945;28;20030;-65
2021/07/22 01:44:50;;;;;;;4.55;3.47;;;19.50;52.00;;;;;;5031497;28;20041;-65
2021/07/22 01:47:16;;;;;;;4.65;3.75;;;19.50;51.90;;;;;;5031891;28;20025;-65
2021/07/22 01:49:41;;;;;;;4.45;3.47;;;19.40;52.00;;;;;;5031616;28;20618;-65
2021/07/22 01:52:07;;;;;;;5.10;4.10;;;19.50;51.90;;;;;;5031628;28;20030;-66
2021/07/22 01:54:33;;;;;;;5.60;4.03;;;19.40;52.00;;;;;;5031441;28;20030;-65
2021/07/22 01:57:00;;;;;;;5.78;3.60;;;19.40;52.10;;;;;;5030932;28;20037;-66
2021/07/22 01:59:35;;;;;;;6.28;4.20;;;19.40;52.10;;;;;;5031511;28;20382;-65
2021/07/22 02:02:05;;;;;;;7.05;4.30;;;19.40;52.20;;;;;;5031534;28;20033;-65
2021/07/22 02:04:31;;;;;;;8.00;4.35;;;19.30;52.20;;;;;;5030811;28;20116;-65
2021/07/22 02:06:57;;;;;;;7.28;4.55;;;19.30;52.50;;;;;;5031530;28;20029;-64
2021/07/22 02:09:23;;;;;;;5.68;4.22;;;19.30;52.60;;;;;;5031059;28;20498;-67
2021/07/22 02:11:50;;;;;;;8.02;5.05;;;19.30;52.60;;;;;;5031537;28;20017;-64
2021/07/22 02:14:16;;;;;;;4.18;3.60;;;19.30;52.60;;;;;;5031451;28;20017;-66
2021/07/22 02:16:42;;;;;;;5.35;4.28;;;19.30;52.40;;;;;;5031401;28;20021;-66
2021/07/22 02:19:07;;;;;;;5.50;3.85;;;19.30;52.40;;;;;;5031355;28;20057;-65
2021/07/22 02:21:34;;;;;;;5.13;4.15;;;19.30;52.40;;;;;;5019101;28;20026;-66
2021/07/22 02:24:00;;;;;;;4.72;3.60;;;19.30;52.30;;;;;;5016131;28;20122;-65
2021/07/22 02:26:26;;;;;;;6.20;3.75;;;19.20;52.00;;;;;;5030827;28;20033;-65
2021/07/22 02:28:53;;;;;;;4.13;3.40;;;19.20;52.00;;;;;;5031040;28;20029;-65
2021/07/22 02:31:19;;;;;;;6.32;4.07;;;19.20;51.90;;;;;;5030555;28;20022;-65
2021/07/22 02:33:44;;;;;;;8.27;4.35;;;19.20;52.00;;;;;;5029984;28;20426;-65
2021/07/22 02:36:10;;;;;;;12.30;4.10;;;19.10;52.10;;;;;;5030650;28;20034;-65
2021/07/22 02:38:36;;;;;;;5.20;3.60;;;19.10;52.10;;;;;;5031007;28;20040;-65
2021/07/22 02:41:04;;;;;;;6.38;4.40;;;19.10;52.10;;;;;;5029189;28;20069;-65
2021/07/22 02:43:31;;;;;;;5.30;4.32;;;19.10;52.10;;;;;;5030953;28;20033;-65
2021/07/22 02:45:56;;;;;;;4.75;3.92;;;19.00;52.00;;;;;;5029739;28;20035;-65
2021/07/22 02:48:23;;;;;;;7.47;4.10;;;19.00;52.10;;;;;;5031713;28;20070;-65
2021/07/22 02:50:48;;;;;;;5.18;3.38;;;19.00;52.10;;;;;;5031600;28;20379;-65
2021/07/22 02:53:14;;;;;;;6.18;3.88;;;19.00;52.10;;;;;;5031510;28;20022;-65
2021/07/22 02:55:40;;;;;;;4.88;3.78;;;18.90;52.10;;;;;;5031255;28;20046;-65
2021/07/22 02:58:06;;;;;;;5.32;3.45;;;18.90;52.20;;;;;;5030990;28;20037;-65
2021/07/22 03:00:33;;;;;;;7.35;3.92;;;18.90;52.20;;;;;;5031629;28;20378;-66
2021/07/22 03:03:02;;;;;;;5.85;4.03;;;18.90;52.20;;;;;;5031517;28;20088;-65
2021/07/22 03:05:31;;;;;;;8.25;3.53;;;18.80;52.20;;;;;;5011854;28;20068;-65
2021/07/22 03:07:59;;;;;;;4.68;3.65;;;18.90;52.40;;;;;;5030331;28;20026;-64
2021/07/22 03:10:25;;;;;;;6.55;4.30;;;18.80;52.40;;;;;;5034309;28;20080;-65
2021/07/22 03:12:52;;;;;;;5.70;3.53;;;18.80;52.40;;;;;;5035560;28;20038;-64
2021/07/22 03:15:18;;;;;;;4.35;3.67;;;18.80;52.40;;;;;;5035592;28;20036;-64
2021/07/22 03:17:44;;;;;;;4.57;3.63;;;18.80;52.50;;;;;;5035408;28;20379;-65
2021/07/22 03:20:11;;;;;;;5.35;4.20;;;18.80;52.60;;;;;;5034515;28;20035;-65
2021/07/22 03:22:36;;;;;;;6.75;4.43;;;18.80;52.80;;;;;;5035276;28;20048;-65
2021/07/22 03:25:03;;;;;;;6.97;4.60;;;18.70;52.90;;;;;;5035190;28;20029;-65
2021/07/22 03:27:28;;;;;;;4.90;4.28;;;18.70;53.20;;;;;;5035169;28;20095;-65
2021/07/22 03:29:54;;;;;;;6.75;3.95;;;18.70;53.00;;;;;;5035264;28;20493;-65
2021/07/22 03:32:20;;;;;;;7.80;4.47;;;18.70;53.10;;;;;;5035090;28;20099;-65
2021/07/22 03:34:45;;;;;;;5.15;4.00;;;18.70;53.30;;;;;;5034518;28;20041;-64
2021/07/22 03:37:11;;;;;;;7.07;4.00;;;18.70;53.30;;;;;;5035218;28;20105;-65
2021/07/22 03:39:37;;;;;;;11.18;4.22;;;18.70;53.40;;;;;;5035117;28;20033;-65
2021/07/22 03:42:04;;;;;;;10.30;4.75;;;18.70;53.90;;;;;;5033823;28;20033;-65
2021/07/22 03:44:30;;;;;;;5.82;4.57;;;18.70;54.70;;;;;;5035001;28;20040;-65
2021/07/22 03:46:56;;;;;;;6.80;4.85;;;18.70;54.70;;;;;;5035054;28;20033;-65
2021/07/22 03:49:22;;;;;;;6.03;4.30;;;18.70;55.10;;;;;;5034692;28;20024;-65
2021/07/22 03:51:47;;;;;;;8.23;4.43;;;18.70;54.80;;;;;;5034856;28;20375;-65
2021/07/22 03:54:14;;;;;;;4.93;4.07;;;18.70;55.10;;;;;;5034900;28;20112;-65
2021/07/22 03:56:40;;;;;;;5.68;4.22;;;18.80;55.40;;;;;;5034745;28;20101;-65
2021/07/22 03:59:06;;;;;;;7.13;4.15;;;18.80;55.20;;;;;;5034754;28;20356;-65
2021/07/22 04:01:32;;;;;;;6.20;4.85;;;18.80;55.30;;;;;;5034793;28;20067;-65
2021/07/22 04:03:58;;;;;;;6.43;4.88;;;18.80;55.40;;;;;;5034462;28;20030;-65
2021/07/22 04:06:23;;;;;;;8.38;4.10;;;18.80;55.60;;;;;;5034391;28;20448;-66
2021/07/22 04:08:49;;;;;;;7.20;5.13;;;18.80;55.30;;;;;;5034481;28;20387;-64
2021/07/22 04:11:15;;;;;;;8.70;4.90;;;18.80;55.90;;;;;;5034423;28;20028;-64
2021/07/22 04:13:41;;;;;;;5.65;4.30;;;18.80;55.80;;;;;;5034431;28;20033;-64
2021/07/22 04:16:06;;;;;;;7.65;4.03;;;18.80;55.60;;;;;;5033193;28;20124;-66
2021/07/22 04:18:32;;;;;;;7.55;4.38;;;18.80;55.70;;;;;;5034365;28;20029;-67
2021/07/22 04:21:01;;;;;;;4.60;3.58;;;18.90;55.60;;;;;;5033741;28;20083;-66
2021/07/22 04:23:27;;;;;;;5.45;3.92;;;18.80;55.60;;;;;;5034275;28;20029;-64
2021/07/22 04:25:52;;;;;;;5.15;4.15;;;18.90;55.70;;;;;;5034017;28;20540;-65
2021/07/22 04:28:18;;;;;;;6.78;4.32;;;18.90;55.60;;;;;;5034151;28;20047;-65
2021/07/22 04:30:44;;;;;;;5.60;4.13;;;18.90;55.70;;;;;;5034115;28;20032;-64
2021/07/22 04:33:10;;;;;;;5.00;3.88;;;19.00;55.60;;;;;;5033265;28;20049;-64
2021/07/22 04:35:35;;;;;;;7.32;4.50;;;19.00;55.50;;;;;;5034236;28;20033;-64
2021/07/22 04:38:02;;;;;;;6.32;4.40;;;19.10;55.90;;;;;;5034075;28;20032;-67
2021/07/22 04:40:27;;;;;;;7.07;5.15;;;19.10;56.00;;;;;;5033755;28;20506;-66
2021/07/22 04:42:53;;;;;;;9.50;5.03;;;19.20;55.90;;;;;;5033949;28;20109;-64
2021/07/22 04:45:19;;;;;;;10.93;6.13;;;19.20;55.70;;;;;;5033884;28;20098;-66
2021/07/22 04:47:44;;;;;;;8.00;5.35;;;19.30;55.60;;;;;;5033818;28;20025;-67
2021/07/22 04:50:11;;;;;;;9.38;5.18;;;19.30;55.50;;;;;;5033596;28;20021;-64
2021/07/22 04:52:37;;;;;;;9.13;5.30;;;19.40;55.40;;;;;;5033800;28;20013;-66
2021/07/22 04:55:03;;;;;;;9.63;5.03;;;19.40;55.20;;;;;;5033762;28;20021;-64
2021/07/22 04:57:28;;;;;;;10.32;6.32;;;19.40;55.10;;;;;;5033784;28;20414;-64
2021/07/22 04:59:54;;;;;;;13.70;6.13;;;19.50;55.40;;;;;;5033654;28;20025;-65
2021/07/22 05:02:20;;;;;;;9.75;5.30;;;19.60;55.20;;;;;;5033637;28;20032;-65
2021/07/22 05:04:46;;;;;;;11.40;5.57;;;19.60;55.10;;;;;;5033235;28;20569;-65
2021/07/22 05:07:12;;;;;;;8.18;5.43;;;19.70;54.90;;;;;;5033510;28;20048;-65
2021/07/22 05:09:38;;;;;;;9.10;5.40;;;19.80;54.90;;;;;;5032149;28;20402;-65
2021/07/22 05:12:07;;;;;;;13.48;5.90;;;19.90;54.90;;;;;;5033326;28;20029;-65
2021/07/22 05:14:33;;;;;;;10.85;6.05;;;20.00;55.00;;;;;;5033159;28;20525;-65
2021/07/22 05:16:59;;;;;;;14.02;5.50;;;20.10;54.90;;;;;;5033201;28;20113;-65
2021/07/22 05:19:25;;;;;;;14.98;6.18;;;20.20;54.70;;;;;;5032921;28;20057;-65
2021/07/22 05:21:50;;;;;;;14.52;6.07;;;20.30;54.70;;;;;;5033201;28;20029;-66
2021/07/22 05:24:16;;;;;;;13.00;5.60;;;20.40;54.70;;;;;;5033037;28;20439;-66
2021/07/22 05:26:42;;;;;;;12.10;5.97;;;20.50;54.70;;;;;;5033174;28;20060;-65
2021/07/22 05:29:08;;;;;;;14.27;5.90;;;20.60;54.60;;;;;;5032882;28;20067;-66
2021/07/22 05:31:34;;;;;;;8.23;5.40;;;20.70;54.40;;;;;;5031911;28;20021;-66
2021/07/22 05:34:00;;;;;;;9.63;5.65;;;20.70;54.10;;;;;;5032044;28;20029;-65
2021/07/22 05:36:26;;;;;;;13.55;5.35;;;20.80;54.60;;;;;;5032945;28;20029;-66
2021/07/22 05:38:52;;;;;;;14.13;5.22;;;20.90;54.00;;;;;;5032759;28;20040;-66
2021/07/22 05:41:17;;;;;;;12.55;5.60;;;21.00;53.80;;;;;;5032742;28;20104;-65
2021/07/22 05:43:43;;;;;;;20.67;6.00;;;21.10;53.60;;;;;;5032863;28;20025;-66
2021/07/22 05:46:09;;;;;;;16.48;6.50;;;21.20;53.30;;;;;;5032664;28;20056;-65
2021/07/22 05:48:35;;;;;;;23.92;6.60;;;21.30;53.00;;;;;;5032782;28;20057;-66
2021/07/22 05:51:02;;;;;;;18.80;6.70;;;21.30;53.30;;;;;;5032499;28;20036;-66
2021/07/22 05:53:28;;;;;;;44.78;8.63;;;21.30;52.70;;;;;;5032676;28;20049;-66
2021/07/22 05:55:58;;;;;;;22.08;7.53;;;21.40;52.50;;;;;;5029052;28;20108;-66
2021/07/22 05:58:24;;;;;;;18.80;7.47;;;21.40;52.20;;;;;;5031663;28;20548;-66
2021/07/22 06:00:49;;;;;;;20.83;6.63;;;21.50;52.00;;;;;;5031447;28;20048;-66
2021/07/22 06:03:15;;;;;;;24.45;6.65;;;21.50;51.60;;;;;;5030993;28;20030;-66
2021/07/22 06:05:41;;;;;;;13.75;6.45;;;21.50;51.70;;;;;;5031397;28;20052;-66
2021/07/22 06:08:06;;;;;;;14.10;5.88;;;21.60;51.70;;;;;;5031713;28;20026;-66
2021/07/22 06:10:32;;;;;;;33.05;8.20;;;21.60;51.60;;;;;;5031422;28;20022;-66
2021/07/22 06:12:59;;;;;;;25.23;7.28;;;21.60;51.60;;;;;;5031631;28;20033;-65
2021/07/22 06:15:25;;;;;;;32.20;9.15;;;21.60;51.40;;;;;;5031494;28;20030;-66
2021/07/22 06:17:51;;;;;;;27.48;8.07;;;21.70;51.20;;;;;;5031316;28;20048;-66
2021/07/22 06:20:17;;;;;;;73.35;11.70;;;21.70;51.30;;;;;;5031662;28;20120;-65
2021/07/22 06:22:46;;;;;;;29.38;6.78;;;21.70;51.10;;;;;;5031385;28;20029;-65
2021/07/22 06:25:14;;;;;;;15.75;5.65;;;21.80;51.00;;;;;;5031042;28;20104;-66
2021/07/22 06:27:41;;;;;;;18.45;6.03;;;21.80;50.60;;;;;;5031253;28;20025;-65
2021/07/22 06:30:08;;;;;;;15.18;5.28;;;21.80;50.60;;;;;;5031148;28;20021;-66
2021/07/22 06:32:33;;;;;;;26.10;7.18;;;21.80;50.40;;;;;;5030873;28;20050;-66
2021/07/22 06:34:59;;;;;;;16.95;5.88;;;21.90;50.40;;;;;;5030457;28;20040;-66
2021/07/22 06:37:25;;;;;;;8.45;4.90;;;22.00;50.20;;;;;;5031109;28;20036;-66
2021/07/22 06:39:50;;;;;;;43.58;8.35;;;22.00;50.10;;;;;;5031173;28;20521;-66
2021/07/22 06:42:16;;;;;;;19.50;5.53;;;22.10;50.20;;;;;;5030706;28;20036;-66
2021/07/22 06:44:42;;;;;;;9.05;4.70;;;22.10;50.20;;;;;;5029598;28;20075;-66
2021/07/22 06:47:08;;;;;;;9.07;4.70;;;22.20;50.10;;;;;;5031150;28;20426;-65
2021/07/22 06:49:33;;;;;;;15.80;5.57;;;22.30;50.00;;;;;;5031072;28;20026;-66
2021/07/22 06:51:59;;;;;;;10.20;5.70;;;22.40;49.80;;;;;;5030759;28;20041;-66
2021/07/22 06:54:25;;;;;;;12.90;6.25;;;22.50;49.70;;;;;;5026325;28;20414;-66
2021/07/22 06:56:51;;;;;;;6.90;5.05;;;22.50;49.10;;;;;;5029628;28;20021;-66
2021/07/22 06:59:17;;;;;;;6.38;4.53;;;22.70;48.90;;;;;;5031015;28;20025;-66
2021/07/22 07:01:43;;;;;;;6.28;4.20;;;22.80;48.60;;;;;;5030809;28;20030;-66
2021/07/22 07:04:09;;;;;;;13.82;4.57;;;22.80;48.50;;;;;;5030496;28;20074;-66
2021/07/22 07:06:35;;;;;;;12.90;4.07;;;22.90;48.10;;;;;;5030878;28;20100;-66
2021/07/22 07:09:03;;;;;;;17.88;5.30;;;23.00;47.50;;;;;;5030896;28;20025;-66
2021/07/22 07:11:29;;;;;;;24.25;5.68;;;23.10;46.00;;;;;;5030595;28;20032;-66
2021/07/22 07:13:55;;;;;;;14.55;7.80;;;23.20;45.80;;;;;;5030761;28;20026;-66
2021/07/22 07:16:21;;;;;;;10.80;4.85;;;23.30;46.00;;;;;;5030788;28;20025;-66
2021/07/22 07:18:47;;;;;;;6.43;4.15;;;23.40;45.90;;;;;;5011285;28;20041;-66
2021/07/22 07:21:13;;;;;;;6.68;4.00;;;23.50;45.20;;;;;;5011090;28;20037;-66
2021/07/22 07:23:38;;;;;;;4.88;3.80;;;23.50;45.00;;;;;;5011077;28;20026;-66
2021/07/22 07:26:08;;;;;;;8.20;4.10;;;23.60;44.40;;;;;;5010489;28;20408;-66
2021/07/22 07:28:33;;;;;;;5.05;3.85;;;23.70;44.90;;;;;;5010431;28;20033;-66
2021/07/22 07:30:59;;;;;;;5.55;3.92;;;23.80;44.00;;;;;;5010805;28;20468;-66
2021/07/22 07:33:27;;;;;;;6.30;3.97;;;23.80;43.80;;;;;;5014459;28;20042;-66
2021/07/22 07:35:53;;;;;;;9.32;3.65;;;23.90;42.90;;;;;;5030286;28;20048;-66
2021/07/22 07:38:19;;;;;;;7.45;3.90;;;23.90;43.20;;;;;;5030267;28;20535;-66
2021/07/22 07:40:45;;;;;;;5.47;3.80;;;24.00;43.80;;;;;;5030290;28;20096;-66
2021/07/22 07:43:15;;;;;;;6.50;3.97;;;24.00;43.60;;;;;;5030190;28;20060;-66
2021/07/22 07:45:41;;;;;;;7.22;4.05;;;24.20;43.50;;;;;;5030292;28;20029;-66
2021/07/22 07:48:07;;;;;;;10.13;4.07;;;24.20;43.30;;;;;;5030270;28;20489;-66
2021/07/22 07:50:33;;;;;;;7.75;4.50;;;24.30;43.00;;;;;;5030320;28;20466;-66
2021/07/22 07:52:59;;;;;;;8.68;3.83;;;24.30;42.80;;;;;;5029968;28;20041;-66
2021/07/22 07:55:24;;;;;;;11.13;4.50;;;24.40;43.20;;;;;;5042078;28;20112;-66
2021/07/22 07:57:50;;;;;;;7.22;4.35;;;24.50;43.00;;;;;;5053755;28;20025;-66
2021/07/22 08:00:16;;;;;;;6.43;3.60;;;24.50;42.90;;;;;;5053589;28;20111;-66
2021/07/22 08:02:47;;;;;;;4.75;3.72;;;24.70;42.40;;;;;;5054040;28;20392;-66
2021/07/22 08:05:13;;;;;;;5.25;3.28;;;24.70;42.20;;;;;;5034855;28;20034;-66
2021/07/22 08:07:39;;;;;;;6.43;4.75;;;24.80;42.60;;;;;;5034524;28;20021;-66
2021/07/22 08:10:05;;;;;;;7.07;4.53;;;24.80;42.30;;;;;;5031525;28;20486;-66
2021/07/22 08:12:31;;;;;;;10.10;4.38;;;24.90;42.70;;;;;;5032102;28;20032;-66
2021/07/22 08:14:56;;;;;;;5.85;3.72;;;24.90;41.70;;;;;;5033505;28;20029;-66
2021/07/22 08:17:25;;;;;;;6.88;3.90;;;25.00;41.10;;;;;;5033551;28;20025;-66
2021/07/22 08:19:53;;;;;;;5.47;4.07;;;25.00;41.30;;;;;;5033439;28;20029;-66
2021/07/22 08:22:19;;;;;;;7.72;3.80;;;25.00;41.30;;;;;;5033554;28;20022;-66
2021/07/22 08:24:45;;;;;;;7.53;4.15;;;25.00;41.40;;;;;;5033469;28;20025;-66
2021/07/22 08:27:12;;;;;;;8.80;4.00;;;25.10;41.10;;;;;;5033536;28;20107;-66
2021/07/22 08:29:39;;;;;;;7.72;5.32;;;25.20;41.10;;;;;;5033102;28;20064;-66
2021/07/22 08:32:05;;;;;;;10.07;4.53;;;25.20;41.00;;;;;;5031901;28;20407;-66
2021/07/22 08:34:31;;;;;;;10.65;3.95;;;25.30;40.20;;;;;;5032329;28;20038;-66
2021/07/22 08:36:57;;;;;;;5.00;3.53;;;25.30;39.90;;;;;;5016152;28;20076;-66
2021/07/22 08:39:22;;;;;;;8.15;4.10;;;25.30;40.10;;;;;;5013361;28;20026;-66
2021/07/22 08:41:48;;;;;;;5.97;4.15;;;25.40;40.50;;;;;;5026874;28;20049;-66
2021/07/22 08:44:14;;;;;;;5.53;3.72;;;25.40;40.80;;;;;;5033134;28;20445;-66
2021/07/22 08:46:41;;;;;;;10.18;4.53;;;25.50;40.90;;;;;;5032928;28;20033;-66
2021/07/22 08:49:08;;;;;;;53.70;6.82;;;25.50;40.90;;;;;;5032879;28;20018;-66
2021/07/22 08:51:34;;;;;;;13.00;5.40;;;25.60;40.60;;;;;;5032746;28;20030;-66
2021/07/22 08:54:00;;;;;;;7.28;4.93;;;25.60;40.60;;;;;;5032379;28;20030;-66
2021/07/22 08:56:26;;;;;;;6.97;4.20;;;25.70;40.70;;;;;;5021745;28;20022;-66
2021/07/22 08:58:55;;;;;;;10.70;4.15;;;25.80;40.30;;;;;;5012941;28;20061;-66
2021/07/22 09:01:21;;;;;;;273.92;25.90;;;25.80;39.70;;;;;;5011710;28;20030;-66
2021/07/22 09:03:47;;;;;;;14.43;5.47;;;25.90;39.80;;;;;;5018632;28;20032;-66
2021/07/22 09:06:14;;;;;;;8.13;4.30;;;26.00;39.50;;;;;;5031829;28;20030;-66
2021/07/22 09:08:41;;;;;;;8.30;4.15;;;26.00;39.60;;;;;;5032050;28;20017;-66
2021/07/22 09:11:11;;;;;;;10.50;5.90;;;26.00;39.80;;;;;;5032515;28;20099;-66
2021/07/22 09:13:37;;;;;;;7.03;4.88;;;26.10;39.70;;;;;;5031211;28;20025;-66
2021/07/22 09:16:04;;;;;;;6.63;4.35;;;26.20;39.40;;;;;;5012793;28;20034;-66
2021/07/22 09:18:34;;;;;;;11.40;4.50;;;26.20;39.80;;;;;;5012628;28;20029;-66
2021/07/22 09:21:22;;;;;;;16.13;4.60;;;26.30;39.10;;;;;;5011619;28;20033;-66
2021/07/22 09:24:08;;;;;;;6.18;4.18;;;26.30;39.10;;;;;;5012671;28;20030;-66
2021/07/22 09:26:37;;;;;;;9.48;4.72;;;26.40;38.80;;;;;;5012596;28;20026;-65
2021/07/22 09:29:08;;;;;;;5.82;3.97;;;26.40;38.70;;;;;;5012705;28;20054;-66
2021/07/22 09:31:34;;;;;;;5.05;3.60;;;26.50;37.90;;;;;;5027584;28;20071;-65
2021/07/22 09:34:01;;;;;;;10.05;4.03;;;26.50;38.50;;;;;;5019566;28;20041;-66
2021/07/22 09:36:29;;;;;;;5.97;3.90;;;26.60;37.80;;;;;;5030709;28;20028;-66
2021/07/22 09:39:29;;;;;;;4.78;3.38;;;26.60;37.80;;;;;;5018655;28;20065;-64
2021/07/22 09:41:57;;;;;;;8.38;4.03;;;26.60;38.30;;;;;;5026280;28;20033;-65
2021/07/22 09:44:30;;;;;;;6.20;4.40;;;26.70;38.30;;;;;;5031245;28;20033;-65
2021/07/22 09:46:57;;;;;;;7.55;4.32;;;26.70;38.20;;;;;;5031966;28;20029;-66
2021/07/22 09:49:31;;;;;;;5.25;3.72;;;26.80;37.80;;;;;;5031633;28;20033;-64
2021/07/22 09:52:01;;;;;;;6.75;4.65;;;26.80;37.80;;;;;;5030494;28;20023;-65
2021/07/22 09:54:33;;;;;;;7.13;4.40;;;26.90;37.20;;;;;;5031391;28;20029;-64
2021/07/22 09:57:02;;;;;;;8.60;3.90;;;26.90;36.70;;;;;;5034657;28;20049;-64
2021/07/22 09:59:28;;;;;;;5.85;4.00;;;26.90;37.10;;;;;;5039418;28;20130;-65
2021/07/22 10:01:59;;;;;;;10.10;4.05;;;27.00;37.50;;;;;;5031591;28;20021;-65
2021/07/22 10:04:29;;;;;;;19.08;7.25;;;27.00;37.40;;;;;;5029548;28;20033;-65
2021/07/22 10:06:57;;;;;;;5.72;4.10;;;27.00;37.10;;;;;;5031337;28;20033;-65
2021/07/22 10:09:25;;;;;;;8.30;4.60;;;27.10;36.80;;;;;;5030854;28;20026;-65
2021/07/22 10:11:52;;;;;;;10.95;4.25;;;27.10;36.30;;;;;;5031022;28;20076;-65
2021/07/22 10:14:20;;;;;;;5.90;4.18;;;27.10;36.30;;;;;;5026518;28;20479;-64
2021/07/22 10:16:48;;;;;;;6.13;3.83;;;27.20;36.70;;;;;;5030720;28;20387;-64
2021/07/22 10:19:16;;;;;;;8.73;4.18;;;27.20;36.80;;;;;;5031721;28;20029;-65
2021/07/22 10:21:42;;;;;;;6.47;4.30;;;27.20;37.30;;;;;;5030413;28;20025;-65
2021/07/22 10:24:09;;;;;;;8.23;4.47;;;27.30;36.80;;;;;;5032270;28;20533;-65
2021/07/22 10:26:44;;;;;;;7.00;4.70;;;27.30;36.30;;;;;;5032140;28;20025;-65
2021/07/22 10:29:10;;;;;;;9.35;4.75;;;27.40;36.40;;;;;;5031733;28;20029;-65
2021/07/22 10:31:45;;;;;;;5.82;4.50;;;27.40;36.40;;;;;;5032004;28;20029;-65
2021/07/22 10:34:12;;;;;;;6.57;4.70;;;27.50;36.70;;;;;;5031225;28;20041;-65
2021/07/22 10:36:40;;;;;;;6.20;4.28;;;27.60;36.20;;;;;;5031533;28;20493;-65
2021/07/22 10:39:06;;;;;;;5.35;4.30;;;27.60;36.30;;;;;;5031669;28;20061;-65
2021/07/22 10:41:41;;;;;;;6.75;4.57;;;27.70;36.30;;;;;;5031628;28;20061;-65
2021/07/22 10:44:18;;;;;;;6.00;4.43;;;27.80;35.40;;;;;;5031236;28;20029;-65
2021/07/22 10:46:58;;;;;;;7.47;4.15;;;27.80;35.70;;;;;;5031129;28;20026;-65
2021/07/22 10:49:38;;;;;;;6.22;4.60;;;27.90;35.40;;;;;;5031524;28;20032;-65
2021/07/22 10:52:04;;;;;;;12.00;4.53;;;27.90;35.40;;;;;;5031944;28;20476;-65
2021/07/22 10:54:56;;;;;;;8.27;5.28;;;27.90;35.00;;;;;;5031682;28;20036;-65
2021/07/22 10:57:35;;;;;;;12.32;5.28;;;27.90;34.90;;;;;;5030463;28;20076;-65
2021/07/22 11:00:04;;;;;;;7.38;4.75;;;28.00;34.50;;;;;;5031851;28;20104;-65
2021/07/22 11:02:48;;;;;;;9.05;5.18;;;28.00;34.70;;;;;;5030180;28;20132;-65
2021/07/22 11:05:36;;;;;;;19.85;5.85;;;28.00;35.10;;;;;;5029919;28;20025;-65
2021/07/22 11:08:25;;;;;;;5.18;4.07;;;28.10;35.40;;;;;;5024959;28;20043;-65
2021/07/22 11:10:58;;;;;;;7.10;3.92;;;28.20;35.10;;;;;;5028125;28;20056;-65
2021/07/22 11:13:38;;;;;;;7.15;4.63;;;28.20;34.80;;;;;;5031399;28;20045;-65
2021/07/22 11:16:05;;;;;;;9.38;6.00;;;28.30;34.60;;;;;;5031181;28;20022;-65
2021/07/22 11:18:40;;;;;;;6.13;5.00;;;28.30;34.20;;;;;;5029310;28;20063;-65
2021/07/22 11:21:07;;;;;;;13.98;7.80;;;28.30;34.10;;;;;;5030455;28;20025;-65
2021/07/22 11:23:33;;;;;;;12.52;5.88;;;28.40;34.10;;;;;;5028439;28;20538;-65
2021/07/22 11:25:59;;;;;;;7.05;5.40;;;28.40;33.60;;;;;;5030501;28;20030;-64
2021/07/22 11:28:26;;;;;;;9.38;5.15;;;28.50;33.50;;;;;;5030489;28;20105;-65
2021/07/22 11:31:07;;;;;;;7.47;5.20;;;28.50;33.60;;;;;;5030637;28;20359;-66
2021/07/22 11:33:39;;;;;;;5.75;4.53;;;28.60;33.60;;;;;;5033849;28;20539;-66
2021/07/22 11:36:25;;;;;;;6.68;4.72;;;28.60;33.40;;;;;;5033279;28;20037;-65
2021/07/22 11:38:54;;;;;;;6.97;4.80;;;28.70;33.50;;;;;;5014308;28;20044;-66
2021/07/22 11:41:21;;;;;;;10.45;5.82;;;28.80;33.30;;;;;;5023728;28;20037;-66
2021/07/22 11:43:58;;;;;;;27.25;9.52;;;28.80;33.00;;;;;;5033746;28;20033;-66
2021/07/22 11:46:40;;;;;;;10.23;6.10;;;28.80;32.90;;;;;;5033469;28;20021;-66
2021/07/22 11:49:12;;;;;;;9.80;5.60;;;28.80;33.00;;;;;;5032428;28;20060;-66
2021/07/22 11:51:39;;;;;;;6.15;4.45;;;28.90;32.30;;;;;;5034053;28;20029;-66
2021/07/22 11:54:05;;;;;;;8.55;5.25;;;28.90;31.70;;;;;;5033358;28;20021;-66
2021/07/22 11:56:33;;;;;;;7.25;4.65;;;29.00;32.40;;;;;;5031017;28;20021;-66
2021/07/22 11:59:05;;;;;;;7.75;5.35;;;29.00;32.70;;;;;;5032657;28;20061;-66
2021/07/22 12:01:33;;;;;;;8.98;6.03;;;29.10;33.00;;;;;;5032931;28;20057;-65
2021/07/22 12:03:59;;;;;;;12.32;6.60;;;29.10;32.20;;;;;;5032184;28;20040;-65
2021/07/22 12:06:26;;;;;;;60.47;12.55;;;29.20;31.60;;;;;;5032973;28;20471;-66
2021/07/22 12:09:09;;;;;;;24.17;7.22;;;29.20;31.10;;;;;;5033462;28;20033;-66
2021/07/22 12:11:45;;;;;;;7.30;5.00;;;29.20;30.90;;;;;;5020494;28;20068;-65
2021/07/22 12:14:11;;;;;;;17.95;5.57;;;29.20;31.00;;;;;;5033802;28;20479;-68
2021/07/22 12:16:38;;;;;;;10.50;6.03;;;29.30;31.70;;;;;;5033636;28;20391;-65
2021/07/22 12:19:03;;;;;;;20.90;5.70;;;29.30;31.90;;;;;;5033533;28;20545;-66
2021/07/22 12:21:30;;;;;;;6.18;4.97;;;29.40;30.40;;;;;;5032306;28;20025;-68
2021/07/22 12:24:17;;;;;;;6.60;5.00;;;29.40;31.00;;;;;;5027069;28;20041;-67
2021/07/22 12:26:44;;;;;;;6.97;5.22;;;29.50;30.40;;;;;;5033254;28;20034;-67
2021/07/22 12:29:10;;;;;;;6.00;4.25;;;29.50;30.10;;;;;;5033140;28;20039;-68
2021/07/22 12:31:38;;;;;;;7.63;4.70;;;29.50;30.10;;;;;;5028868;28;20572;-67
2021/07/22 12:34:05;;;;;;;6.40;4.80;;;29.60;30.00;;;;;;5032753;28;20026;-67
2021/07/22 12:36:33;;;;;;;10.07;6.20;;;29.70;30.00;;;;;;5016569;28;20042;-67
2021/07/22 12:39:25;;;;;;;10.23;5.85;;;29.70;29.90;;;;;;5013440;28;20025;-67
2021/07/22 12:41:51;;;;;;;7.85;5.22;;;29.70;29.70;;;;;;5026640;28;20029;-67
2021/07/22 12:44:52;;;;;;;6.05;4.55;;;29.80;29.50;;;;;;5033562;28;20581;-68
2021/07/22 12:47:27;;;;;;;6.20;4.70;;;29.80;29.80;;;;;;5033753;28;20021;-66